Bookmark and Share
Track history (hours):
 

Marco Polo

Last reported at 2014-Apr-23 10:25 UTC. Time now 2014-Apr-24 19:53 UTC.
Position N 24°25' E 118°05'.

Length 32 m.

MMSI: 416000256.

NotesDate/timePositionNaut miles runAvg speedWind from/ knotsBaromVisibWave heightAir tempDewpointWater temp
2014-Apr-23 10:25N 24°25' E 118°05'1 0.6
2014-Apr-23 09:19N 24°26' E 118°05'10 1.7
2014-Apr-23 03:27N 24°31' E 118°14'6 7.0
2014-Apr-23 02:33N 24°25' E 118°17'0 0.3
2014-Apr-23 01:27N 24°25' E 118°17'0 0.0
2014-Apr-23 00:32N 24°25' E 118°17'0 0.0
2014-Apr-22 23:34N 24°25' E 118°17'0 0.0
2014-Apr-22 22:30N 24°25' E 118°17'0 0.0
2014-Apr-22 21:29N 24°25' E 118°17'0 0.0
2014-Apr-22 20:32N 24°25' E 118°17'0 0.0
2014-Apr-22 19:33N 24°25' E 118°17'0 0.0
2014-Apr-22 18:33N 24°25' E 118°17'0 0.0
2014-Apr-22 17:32N 24°25' E 118°17'0 0.0
2014-Apr-22 16:32N 24°25' E 118°17'0 0.0
2014-Apr-22 15:24N 24°25' E 118°17'0 0.0
2014-Apr-22 10:23N 24°25' E 118°17'0 0.0
2014-Apr-22 09:26N 24°25' E 118°17'0 0.0
2014-Apr-22 08:34N 24°25' E 118°17'0 0.3
2014-Apr-22 07:32N 24°25' E 118°17'1313.3
2014-Apr-22 06:33N 24°27' E 118°03'2 2.0
2014-Apr-22 05:33N 24°29' E 118°04'2 1.8
2014-Apr-22 04:33N 24°28' E 118°03'1311.1
2014-Apr-22 03:23N 24°25' E 118°17'5 6.7
2014-Apr-22 02:33N 24°30' E 118°15'2 1.9
2014-Apr-22 01:33N 24°31' E 118°13'7 3.6
2014-Apr-21 23:32N 24°25' E 118°17'0 0.0
2014-Apr-21 22:09N 24°25' E 118°17'0 0.0
2014-Apr-21 21:32N 24°25' E 118°17'0 0.0
2014-Apr-21 20:09N 24°25' E 118°17'0 0.0
2014-Apr-21 15:29N 24°25' E 118°17'0 0.0
2014-Apr-21 10:08N 24°25' E 118°17'610.5
2014-Apr-21 09:33N 24°31' E 118°14'3 3.2
2014-Apr-21 08:33N 24°32' E 118°11'9 7.0
2014-Apr-21 07:17N 24°25' E 118°17'0 0.1
2014-Apr-21 06:33N 24°25' E 118°17'0 0.0
2014-Apr-21 05:33N 24°25' E 118°17'7 7.0
2014-Apr-21 04:33N 24°23' E 118°10'8 8.3
2014-Apr-21 03:33N 24°29' E 118°04'1 1.0
2014-Apr-21 02:33N 24°28' E 118°04'  
2014-Apr-18 08:32N 24°25' E 118°17'0 0.4
2014-Apr-18 07:31N 24°25' E 118°17'0 0.0
2014-Apr-18 06:33N 24°25' E 118°17'0 0.0
2014-Apr-18 05:33N 24°25' E 118°17'6 6.2
2014-Apr-18 04:32N 24°31' E 118°14'2 2.4
2014-Apr-18 03:33N 24°32' E 118°12'9 8.9
2014-Apr-18 02:33N 24°25' E 118°17'0 0.1
2014-Apr-17 22:17N 24°25' E 118°17'0 0.0
2014-Apr-17 21:22N 24°25' E 118°17'0 0.0
2014-Apr-17 20:09N 24°25' E 118°17'0 0.0
2014-Apr-17 19:31N 24°25' E 118°17'0 0.0
2014-Apr-17 18:30N 24°25' E 118°17'0 0.0
2014-Apr-17 17:17N 24°25' E 118°17'0 0.0
2014-Apr-17 16:30N 24°25' E 118°17'13 1.3
2014-Apr-17 06:33N 24°28' E 118°03'2 1.8
2014-Apr-17 05:33N 24°29' E 118°04'1 0.5
2014-Apr-17 04:33N 24°29' E 118°04'1312.6
2014-Apr-17 03:33N 24°25' E 118°17'2 2.5
2014-Apr-17 02:34N 24°28' E 118°17'6 5.6
2014-Apr-17 01:33N 24°32' E 118°13'8 7.8
2014-Apr-17 00:33N 24°25' E 118°17'0 0.0
2014-Apr-16 23:33N 24°25' E 118°17'0 0.0
2014-Apr-16 22:33N 24°25' E 118°17'0 0.0
2014-Apr-16 21:32N 24°25' E 118°17'0 0.0
2014-Apr-16 20:32N 24°25' E 118°17'0 0.0
2014-Apr-16 19:27N 24°25' E 118°17'0 0.0
2014-Apr-16 18:33N 24°25' E 118°17'0 0.0
2014-Apr-16 17:33N 24°25' E 118°17'0 0.0
2014-Apr-16 16:33N 24°25' E 118°17'0 0.0
2014-Apr-16 15:28N 24°25' E 118°17'0 0.0
2014-Apr-16 10:08N 24°25' E 118°17'712.2
2014-Apr-16 09:33N 24°31' E 118°13'7 0.3
2014-Apr-15 08:31N 24°25' E 118°17'1313.7
2014-Apr-15 07:34N 24°27' E 118°03'2 2.4
2014-Apr-15 06:33N 24°29' E 118°04'0 0.4
2014-Apr-15 05:34N 24°29' E 118°04'13 6.3
2014-Apr-15 03:33N 24°25' E 118°17'0 0.0
2014-Apr-15 02:34N 24°25' E 118°17'3 2.5
2014-Apr-15 01:33N 24°28' E 118°17'4 0.1
2014-Apr-13 11:09N 24°24' E 118°15'915.2
2014-Apr-13 10:33N 24°26' E 118°05'  

Dump ship's entire track history

sailing weather and tide predictions

Marco Polo — BR2031 — position and weather